sensor_id;sensor_type;location;lat;lon;timestamp;temperature;humidity
12025;DHT22;6073;53.230;10.444;2023-07-13T00:01:16;16.70;99.90
12025;DHT22;6073;53.230;10.444;2023-07-13T00:03:42;16.60;99.90
12025;DHT22;6073;53.230;10.444;2023-07-13T00:06:08;16.60;99.90
12025;DHT22;6073;53.230;10.444;2023-07-13T00:08:34;16.60;99.90
12025;DHT22;6073;53.230;10.444;2023-07-13T00:11:04;16.50;99.90
12025;DHT22;6073;53.230;10.444;2023-07-13T00:13:30;16.50;99.90
12025;DHT22;6073;53.230;10.444;2023-07-13T00:15:58;16.50;99.90
12025;DHT22;6073;53.230;10.444;2023-07-13T00:18:24;16.40;99.90
12025;DHT22;6073;53.230;10.444;2023-07-13T00:20:50;16.40;99.90
12025;DHT22;6073;53.230;10.444;2023-07-13T00:23:15;16.30;99.90
12025;DHT22;6073;53.230;10.444;2023-07-13T00:25:42;16.30;99.90
12025;DHT22;6073;53.230;10.444;2023-07-13T00:28:08;16.20;99.90
12025;DHT22;6073;53.230;10.444;2023-07-13T00:30:33;16.20;99.90
12025;DHT22;6073;53.230;10.444;2023-07-13T00:32:59;16.10;99.90
12025;DHT22;6073;53.230;10.444;2023-07-13T00:35:26;16.10;99.90
12025;DHT22;6073;53.230;10.444;2023-07-13T00:37:52;16.00;99.90
12025;DHT22;6073;53.230;10.444;2023-07-13T00:40:18;15.90;99.90
12025;DHT22;6073;53.230;10.444;2023-07-13T00:42:43;15.90;99.90
12025;DHT22;6073;53.230;10.444;2023-07-13T00:47:38;15.90;99.90
12025;DHT22;6073;53.230;10.444;2023-07-13T00:50:12;15.80;99.90
12025;DHT22;6073;53.230;10.444;2023-07-13T00:52:43;15.80;99.90
12025;DHT22;6073;53.230;10.444;2023-07-13T00:55:11;15.70;99.90
12025;DHT22;6073;53.230;10.444;2023-07-13T00:57:38;15.70;99.90
12025;DHT22;6073;53.230;10.444;2023-07-13T01:00:05;15.60;99.90
12025;DHT22;6073;53.230;10.444;2023-07-13T01:02:36;15.60;99.90
12025;DHT22;6073;53.230;10.444;2023-07-13T01:05:13;15.50;99.90
12025;DHT22;6073;53.230;10.444;2023-07-13T01:07:43;15.50;99.90
12025;DHT22;6073;53.230;10.444;2023-07-13T01:10:10;15.40;99.90
12025;DHT22;6073;53.230;10.444;2023-07-13T01:12:36;15.40;99.90
12025;DHT22;6073;53.230;10.444;2023-07-13T01:15:03;15.30;99.90
12025;DHT22;6073;53.230;10.444;2023-07-13T01:17:31;15.30;99.90
12025;DHT22;6073;53.230;10.444;2023-07-13T01:19:56;15.20;99.90
12025;DHT22;6073;53.230;10.444;2023-07-13T01:22:22;15.20;99.90
12025;DHT22;6073;53.230;10.444;2023-07-13T01:24:52;15.10;99.90
12025;DHT22;6073;53.230;10.444;2023-07-13T01:27:21;15.10;99.90
12025;DHT22;6073;53.230;10.444;2023-07-13T01:29:48;15.10;99.90
12025;DHT22;6073;53.230;10.444;2023-07-13T01:32:24;15.10;99.90
12025;DHT22;6073;53.230;10.444;2023-07-13T01:34:51;15.00;99.90
12025;DHT22;6073;53.230;10.444;2023-07-13T01:37:20;14.90;99.90
12025;DHT22;6073;53.230;10.444;2023-07-13T01:39:46;14.90;99.90
12025;DHT22;6073;53.230;10.444;2023-07-13T01:42:12;14.80;99.90
12025;DHT22;6073;53.230;10.444;2023-07-13T01:44:38;14.80;99.90
12025;DHT22;6073;53.230;10.444;2023-07-13T01:47:04;14.80;99.90
12025;DHT22;6073;53.230;10.444;2023-07-13T01:49:29;14.80;99.90
12025;DHT22;6073;53.230;10.444;2023-07-13T01:51:55;14.80;99.90
12025;DHT22;6073;53.230;10.444;2023-07-13T01:54:20;14.80;99.90
12025;DHT22;6073;53.230;10.444;2023-07-13T01:56:46;14.80;99.90
12025;DHT22;6073;53.230;10.444;2023-07-13T01:59:11;14.70;99.90
12025;DHT22;6073;53.230;10.444;2023-07-13T02:01:37;14.70;99.90
12025;DHT22;6073;53.230;10.444;2023-07-13T02:04:03;14.70;99.90
12025;DHT22;6073;53.230;10.444;2023-07-13T02:06:29;14.60;99.90
12025;DHT22;6073;53.230;10.444;2023-07-13T02:08:55;14.60;99.90
12025;DHT22;6073;53.230;10.444;2023-07-13T02:11:20;14.50;99.90
12025;DHT22;6073;53.230;10.444;2023-07-13T02:13:46;14.50;99.90
12025;DHT22;6073;53.230;10.444;2023-07-13T02:16:11;14.50;99.90
12025;DHT22;6073;53.230;10.444;2023-07-13T02:18:37;14.50;99.90
12025;DHT22;6073;53.230;10.444;2023-07-13T02:21:03;14.40;99.90
12025;DHT22;6073;53.230;10.444;2023-07-13T02:23:29;14.40;99.90
12025;DHT22;6073;53.230;10.444;2023-07-13T02:25:56;14.40;99.90
12025;DHT22;6073;53.230;10.444;2023-07-13T02:28:22;14.40;99.90
12025;DHT22;6073;53.230;10.444;2023-07-13T02:30:47;14.30;99.90
12025;DHT22;6073;53.230;10.444;2023-07-13T02:33:13;14.30;99.90
12025;DHT22;6073;53.230;10.444;2023-07-13T02:35:39;14.30;99.90
12025;DHT22;6073;53.230;10.444;2023-07-13T02:38:04;14.20;99.90
12025;DHT22;6073;53.230;10.444;2023-07-13T02:40:30;14.20;99.90
12025;DHT22;6073;53.230;10.444;2023-07-13T02:42:58;14.10;99.90
12025;DHT22;6073;53.230;10.444;2023-07-13T02:45:24;14.10;99.90
12025;DHT22;6073;53.230;10.444;2023-07-13T02:47:49;14.10;99.90
12025;DHT22;6073;53.230;10.444;2023-07-13T02:50:15;14.10;99.90
12025;DHT22;6073;53.230;10.444;2023-07-13T02:52:40;14.10;99.90
12025;DHT22;6073;53.230;10.444;2023-07-13T02:55:06;14.10;99.90
12025;DHT22;6073;53.230;10.444;2023-07-13T02:57:32;14.00;99.90
12025;DHT22;6073;53.230;10.444;2023-07-13T02:59:58;14.00;99.90
12025;DHT22;6073;53.230;10.444;2023-07-13T03:02:24;14.00;99.90
12025;DHT22;6073;53.230;10.444;2023-07-13T03:04:50;14.00;99.90
12025;DHT22;6073;53.230;10.444;2023-07-13T03:07:16;14.00;99.90
12025;DHT22;6073;53.230;10.444;2023-07-13T03:09:41;14.00;99.90
12025;DHT22;6073;53.230;10.444;2023-07-13T03:12:07;14.00;99.90
12025;DHT22;6073;53.230;10.444;2023-07-13T03:14:33;14.00;99.90
12025;DHT22;6073;53.230;10.444;2023-07-13T03:16:58;14.00;99.90
12025;DHT22;6073;53.230;10.444;2023-07-13T03:19:24;14.00;99.90
12025;DHT22;6073;53.230;10.444;2023-07-13T03:21:50;14.00;99.90
12025;DHT22;6073;53.230;10.444;2023-07-13T03:24:15;14.10;99.90
12025;DHT22;6073;53.230;10.444;2023-07-13T03:26:41;14.10;99.90
12025;DHT22;6073;53.230;10.444;2023-07-13T03:29:06;14.10;99.90
12025;DHT22;6073;53.230;10.444;2023-07-13T03:31:35;14.10;99.90
12025;DHT22;6073;53.230;10.444;2023-07-13T03:34:01;14.10;99.90
12025;DHT22;6073;53.230;10.444;2023-07-13T03:36:29;14.10;99.90
12025;DHT22;6073;53.230;10.444;2023-07-13T03:38:59;14.10;99.90
12025;DHT22;6073;53.230;10.444;2023-07-13T03:41:25;14.10;99.90
12025;DHT22;6073;53.230;10.444;2023-07-13T03:43:51;14.10;99.90
12025;DHT22;6073;53.230;10.444;2023-07-13T03:46:17;14.10;99.90
12025;DHT22;6073;53.230;10.444;2023-07-13T03:48:44;14.10;99.90
12025;DHT22;6073;53.230;10.444;2023-07-13T03:51:11;14.10;99.90
12025;DHT22;6073;53.230;10.444;2023-07-13T03:53:40;14.10;99.90
12025;DHT22;6073;53.230;10.444;2023-07-13T03:56:06;14.10;99.90
12025;DHT22;6073;53.230;10.444;2023-07-13T03:58:35;14.10;99.90
12025;DHT22;6073;53.230;10.444;2023-07-13T04:01:01;14.20;99.90
12025;DHT22;6073;53.230;10.444;2023-07-13T04:03:28;14.10;99.90
12025;DHT22;6073;53.230;10.444;2023-07-13T04:05:56;14.20;99.90
12025;DHT22;6073;53.230;10.444;2023-07-13T04:08:30;14.20;99.90
12025;DHT22;6073;53.230;10.444;2023-07-13T04:10:57;14.20;99.90
12025;DHT22;6073;53.230;10.444;2023-07-13T04:13:23;14.20;99.90
12025;DHT22;6073;53.230;10.444;2023-07-13T04:15:49;14.20;99.90
12025;DHT22;6073;53.230;10.444;2023-07-13T04:18:15;14.30;99.90
12025;DHT22;6073;53.230;10.444;2023-07-13T04:20:41;14.30;99.90
12025;DHT22;6073;53.230;10.444;2023-07-13T04:23:06;14.40;99.90
12025;DHT22;6073;53.230;10.444;2023-07-13T04:25:32;14.50;99.90
12025;DHT22;6073;53.230;10.444;2023-07-13T04:27:57;14.50;99.90
12025;DHT22;6073;53.230;10.444;2023-07-13T04:30:23;14.60;99.90
12025;DHT22;6073;53.230;10.444;2023-07-13T04:32:51;14.60;99.90
12025;DHT22;6073;53.230;10.444;2023-07-13T04:35:18;14.70;99.90
12025;DHT22;6073;53.230;10.444;2023-07-13T04:37:46;14.90;99.90
12025;DHT22;6073;53.230;10.444;2023-07-13T04:40:12;15.00;99.90
12025;DHT22;6073;53.230;10.444;2023-07-13T04:42:38;15.20;99.90
12025;DHT22;6073;53.230;10.444;2023-07-13T04:45:06;15.20;99.90
12025;DHT22;6073;53.230;10.444;2023-07-13T04:47:32;15.20;99.90
12025;DHT22;6073;53.230;10.444;2023-07-13T04:49:57;15.30;99.90
12025;DHT22;6073;53.230;10.444;2023-07-13T04:52:23;15.40;99.90
12025;DHT22;6073;53.230;10.444;2023-07-13T04:54:49;15.50;99.90
12025;DHT22;6073;53.230;10.444;2023-07-13T04:57:14;15.60;99.90
12025;DHT22;6073;53.230;10.444;2023-07-13T04:59:40;15.80;99.90
12025;DHT22;6073;53.230;10.444;2023-07-13T05:02:06;15.90;99.90
12025;DHT22;6073;53.230;10.444;2023-07-13T05:04:31;16.10;99.90
12025;DHT22;6073;53.230;10.444;2023-07-13T05:06:57;16.20;99.90
12025;DHT22;6073;53.230;10.444;2023-07-13T05:09:22;16.30;99.90
12025;DHT22;6073;53.230;10.444;2023-07-13T05:11:48;16.40;99.90
12025;DHT22;6073;53.230;10.444;2023-07-13T05:14:13;16.60;99.90
12025;DHT22;6073;53.230;10.444;2023-07-13T05:16:40;16.90;99.90
12025;DHT22;6073;53.230;10.444;2023-07-13T05:19:06;17.20;99.90
12025;DHT22;6073;53.230;10.444;2023-07-13T05:21:31;17.50;99.90
12025;DHT22;6073;53.230;10.444;2023-07-13T05:23:57;17.80;99.90
12025;DHT22;6073;53.230;10.444;2023-07-13T05:26:22;18.30;99.90
12025;DHT22;6073;53.230;10.444;2023-07-13T05:28:48;18.60;99.90
12025;DHT22;6073;53.230;10.444;2023-07-13T05:31:14;19.00;99.90
12025;DHT22;6073;53.230;10.444;2023-07-13T05:33:40;19.30;99.90
12025;DHT22;6073;53.230;10.444;2023-07-13T05:36:05;19.70;99.90
12025;DHT22;6073;53.230;10.444;2023-07-13T05:38:32;19.50;99.90
12025;DHT22;6073;53.230;10.444;2023-07-13T05:40:58;19.70;99.90
12025;DHT22;6073;53.230;10.444;2023-07-13T05:43:23;19.60;99.90
12025;DHT22;6073;53.230;10.444;2023-07-13T05:45:52;19.70;99.90
12025;DHT22;6073;53.230;10.444;2023-07-13T05:48:18;20.20;99.90
12025;DHT22;6073;53.230;10.444;2023-07-13T05:50:43;19.90;99.90
12025;DHT22;6073;53.230;10.444;2023-07-13T05:53:09;19.90;99.90
12025;DHT22;6073;53.230;10.444;2023-07-13T05:55:35;20.00;99.90
12025;DHT22;6073;53.230;10.444;2023-07-13T05:58:00;20.00;99.90
12025;DHT22;6073;53.230;10.444;2023-07-13T06:00:26;20.20;99.90
12025;DHT22;6073;53.230;10.444;2023-07-13T06:02:52;20.50;99.90
12025;DHT22;6073;53.230;10.444;2023-07-13T06:05:18;20.80;99.90
12025;DHT22;6073;53.230;10.444;2023-07-13T06:07:43;20.80;99.90
12025;DHT22;6073;53.230;10.444;2023-07-13T06:10:09;20.90;99.90
12025;DHT22;6073;53.230;10.444;2023-07-13T06:12:35;21.00;99.90
12025;DHT22;6073;53.230;10.444;2023-07-13T06:15:00;21.00;99.90
12025;DHT22;6073;53.230;10.444;2023-07-13T06:17:26;21.20;99.90
12025;DHT22;6073;53.230;10.444;2023-07-13T06:19:52;21.40;99.90
12025;DHT22;6073;53.230;10.444;2023-07-13T06:22:17;21.50;99.90
12025;DHT22;6073;53.230;10.444;2023-07-13T06:24:43;21.80;99.90
12025;DHT22;6073;53.230;10.444;2023-07-13T06:27:08;21.80;99.90
12025;DHT22;6073;53.230;10.444;2023-07-13T06:29:34;22.00;99.90
12025;DHT22;6073;53.230;10.444;2023-07-13T06:31:59;22.20;99.90
12025;DHT22;6073;53.230;10.444;2023-07-13T06:34:25;21.80;99.90
12025;DHT22;6073;53.230;10.444;2023-07-13T06:36:51;21.90;99.90
12025;DHT22;6073;53.230;10.444;2023-07-13T06:39:16;22.20;99.90
12025;DHT22;6073;53.230;10.444;2023-07-13T06:41:42;22.60;99.90
12025;DHT22;6073;53.230;10.444;2023-07-13T06:44:07;22.20;99.90
12025;DHT22;6073;53.230;10.444;2023-07-13T06:46:33;22.40;99.90
12025;DHT22;6073;53.230;10.444;2023-07-13T06:48:58;22.50;99.90
12025;DHT22;6073;53.230;10.444;2023-07-13T06:51:24;22.40;99.90
12025;DHT22;6073;53.230;10.444;2023-07-13T06:53:51;21.90;99.90
12025;DHT22;6073;53.230;10.444;2023-07-13T06:56:16;21.40;99.90
12025;DHT22;6073;53.230;10.444;2023-07-13T06:58:42;21.60;99.90
12025;DHT22;6073;53.230;10.444;2023-07-13T07:01:08;21.90;99.90
12025;DHT22;6073;53.230;10.444;2023-07-13T07:03:34;22.20;99.90
12025;DHT22;6073;53.230;10.444;2023-07-13T07:06:01;22.10;99.90
12025;DHT22;6073;53.230;10.444;2023-07-13T07:08:27;22.20;99.90
12025;DHT22;6073;53.230;10.444;2023-07-13T07:10:53;22.40;99.90
12025;DHT22;6073;53.230;10.444;2023-07-13T07:13:19;22.40;99.90
12025;DHT22;6073;53.230;10.444;2023-07-13T07:15:45;22.90;99.90
12025;DHT22;6073;53.230;10.444;2023-07-13T07:18:10;23.10;99.90
12025;DHT22;6073;53.230;10.444;2023-07-13T07:20:36;22.60;99.90
12025;DHT22;6073;53.230;10.444;2023-07-13T07:23:02;23.10;99.90
12025;DHT22;6073;53.230;10.444;2023-07-13T07:25:27;23.10;99.90
12025;DHT22;6073;53.230;10.444;2023-07-13T07:27:57;23.00;99.90
12025;DHT22;6073;53.230;10.444;2023-07-13T07:30:22;23.10;99.90
12025;DHT22;6073;53.230;10.444;2023-07-13T07:32:48;22.70;99.90
12025;DHT22;6073;53.230;10.444;2023-07-13T07:35:13;22.60;99.90
12025;DHT22;6073;53.230;10.444;2023-07-13T07:37:39;22.50;99.90
12025;DHT22;6073;53.230;10.444;2023-07-13T07:40:05;22.10;99.90
12025;DHT22;6073;53.230;10.444;2023-07-13T07:42:31;21.80;99.90
12025;DHT22;6073;53.230;10.444;2023-07-13T07:44:56;21.50;99.90
12025;DHT22;6073;53.230;10.444;2023-07-13T07:47:22;21.20;99.90
12025;DHT22;6073;53.230;10.444;2023-07-13T07:49:49;20.90;99.90
12025;DHT22;6073;53.230;10.444;2023-07-13T07:52:15;20.40;99.90
12025;DHT22;6073;53.230;10.444;2023-07-13T07:54:40;20.30;99.90
12025;DHT22;6073;53.230;10.444;2023-07-13T07:57:06;20.60;99.90
12025;DHT22;6073;53.230;10.444;2023-07-13T07:59:32;20.90;99.90
12025;DHT22;6073;53.230;10.444;2023-07-13T08:01:57;21.00;99.90
12025;DHT22;6073;53.230;10.444;2023-07-13T08:04:23;21.00;99.90
12025;DHT22;6073;53.230;10.444;2023-07-13T08:06:48;21.60;99.90
12025;DHT22;6073;53.230;10.444;2023-07-13T08:09:14;22.10;99.90
12025;DHT22;6073;53.230;10.444;2023-07-13T08:11:39;22.00;99.90
12025;DHT22;6073;53.230;10.444;2023-07-13T08:14:05;21.40;99.90
12025;DHT22;6073;53.230;10.444;2023-07-13T08:16:31;21.00;99.90
12025;DHT22;6073;53.230;10.444;2023-07-13T08:18:58;21.60;99.90
12025;DHT22;6073;53.230;10.444;2023-07-13T08:21:23;22.50;99.90
12025;DHT22;6073;53.230;10.444;2023-07-13T08:23:49;23.30;99.90
12025;DHT22;6073;53.230;10.444;2023-07-13T08:26:14;23.60;99.90
12025;DHT22;6073;53.230;10.444;2023-07-13T08:28:40;23.30;99.90
12025;DHT22;6073;53.230;10.444;2023-07-13T08:31:07;22.90;99.90
12025;DHT22;6073;53.230;10.444;2023-07-13T08:33:34;22.80;99.90
12025;DHT22;6073;53.230;10.444;2023-07-13T08:36:01;22.60;99.90
12025;DHT22;6073;53.230;10.444;2023-07-13T08:38:26;23.00;99.90
12025;DHT22;6073;53.230;10.444;2023-07-13T08:40:56;23.50;99.90
12025;DHT22;6073;53.230;10.444;2023-07-13T08:43:35;24.30;99.90
12025;DHT22;6073;53.230;10.444;2023-07-13T08:46:24;24.50;99.90
12025;DHT22;6073;53.230;10.444;2023-07-13T08:48:53;25.10;99.90
12025;DHT22;6073;53.230;10.444;2023-07-13T08:54:00;25.30;99.90
12025;DHT22;6073;53.230;10.444;2023-07-13T08:56:28;25.30;99.90
12025;DHT22;6073;53.230;10.444;2023-07-13T08:59:01;24.30;99.90
12025;DHT22;6073;53.230;10.444;2023-07-13T09:04:28;22.60;99.90
12025;DHT22;6073;53.230;10.444;2023-07-13T09:09:38;23.10;99.90
12025;DHT22;6073;53.230;10.444;2023-07-13T09:12:14;23.00;99.90
12025;DHT22;6073;53.230;10.444;2023-07-13T09:14:47;22.70;99.90
12025;DHT22;6073;53.230;10.444;2023-07-13T09:17:35;22.30;99.90
12025;DHT22;6073;53.230;10.444;2023-07-13T09:20:21;22.20;99.90
12025;DHT22;6073;53.230;10.444;2023-07-13T09:22:49;22.70;99.90
12025;DHT22;6073;53.230;10.444;2023-07-13T09:25:31;23.00;99.90
12025;DHT22;6073;53.230;10.444;2023-07-13T09:28:02;22.60;99.90
12025;DHT22;6073;53.230;10.444;2023-07-13T09:30:45;22.80;99.90
12025;DHT22;6073;53.230;10.444;2023-07-13T09:33:12;23.00;99.90
12025;DHT22;6073;53.230;10.444;2023-07-13T09:35:37;23.60;99.90
12025;DHT22;6073;53.230;10.444;2023-07-13T09:38:24;24.20;99.90
12025;DHT22;6073;53.230;10.444;2023-07-13T09:41:46;24.30;99.90
12025;DHT22;6073;53.230;10.444;2023-07-13T09:44:13;24.10;99.90
12025;DHT22;6073;53.230;10.444;2023-07-13T09:46:44;23.90;99.90
12025;DHT22;6073;53.230;10.444;2023-07-13T09:49:11;23.80;99.90
12025;DHT22;6073;53.230;10.444;2023-07-13T09:51:41;23.80;99.90
12025;DHT22;6073;53.230;10.444;2023-07-13T09:54:21;23.80;99.90
12025;DHT22;6073;53.230;10.444;2023-07-13T09:56:47;23.50;99.90
12025;DHT22;6073;53.230;10.444;2023-07-13T09:59:20;22.80;99.90
12025;DHT22;6073;53.230;10.444;2023-07-13T10:01:46;22.40;99.90
12025;DHT22;6073;53.230;10.444;2023-07-13T10:04:17;21.80;99.90
12025;DHT22;6073;53.230;10.444;2023-07-13T10:06:44;21.40;99.90
12025;DHT22;6073;53.230;10.444;2023-07-13T10:09:13;21.00;99.90
12025;DHT22;6073;53.230;10.444;2023-07-13T10:11:40;20.80;99.90
12025;DHT22;6073;53.230;10.444;2023-07-13T10:14:15;20.70;99.90
12025;DHT22;6073;53.230;10.444;2023-07-13T10:16:43;20.70;99.90
12025;DHT22;6073;53.230;10.444;2023-07-13T10:19:29;21.00;99.90
12025;DHT22;6073;53.230;10.444;2023-07-13T10:22:00;21.10;99.90
12025;DHT22;6073;53.230;10.444;2023-07-13T10:24:29;21.20;99.90
12025;DHT22;6073;53.230;10.444;2023-07-13T10:27:10;21.90;99.90
12025;DHT22;6073;53.230;10.444;2023-07-13T10:29:42;22.30;99.90
12025;DHT22;6073;53.230;10.444;2023-07-13T10:32:13;22.80;99.90
12025;DHT22;6073;53.230;10.444;2023-07-13T10:34:40;23.30;99.90
12025;DHT22;6073;53.230;10.444;2023-07-13T10:37:19;23.60;99.90
12025;DHT22;6073;53.230;10.444;2023-07-13T10:39:47;23.70;99.90
12025;DHT22;6073;53.230;10.444;2023-07-13T10:42:21;23.90;99.90
12025;DHT22;6073;53.230;10.444;2023-07-13T10:44:49;23.80;99.90
12025;DHT22;6073;53.230;10.444;2023-07-13T10:47:16;23.60;99.90
12025;DHT22;6073;53.230;10.444;2023-07-13T10:49:44;23.70;99.90
12025;DHT22;6073;53.230;10.444;2023-07-13T10:52:41;24.20;99.90
12025;DHT22;6073;53.230;10.444;2023-07-13T10:55:54;24.20;99.90
12025;DHT22;6073;53.230;10.444;2023-07-13T10:58:28;24.40;99.90
12025;DHT22;6073;53.230;10.444;2023-07-13T11:06:37;24.40;99.90
12025;DHT22;6073;53.230;10.444;2023-07-13T11:09:40;24.00;99.90
12025;DHT22;6073;53.230;10.444;2023-07-13T11:12:27;23.60;99.90
12025;DHT22;6073;53.230;10.444;2023-07-13T11:25:37;24.70;99.90
12025;DHT22;6073;53.230;10.444;2023-07-13T11:30:47;24.60;99.90
12025;DHT22;6073;53.230;10.444;2023-07-13T11:33:18;24.50;99.90
12025;DHT22;6073;53.230;10.444;2023-07-13T11:38:23;24.90;99.90
12025;DHT22;6073;53.230;10.444;2023-07-13T11:40:54;24.40;99.90
12025;DHT22;6073;53.230;10.444;2023-07-13T11:43:21;24.30;99.90
12025;DHT22;6073;53.230;10.444;2023-07-13T11:45:51;24.20;99.90
12025;DHT22;6073;53.230;10.444;2023-07-13T11:48:36;23.80;99.90
12025;DHT22;6073;53.230;10.444;2023-07-13T11:51:04;24.00;99.90
12025;DHT22;6073;53.230;10.444;2023-07-13T11:53:38;24.60;99.90
12025;DHT22;6073;53.230;10.444;2023-07-13T11:56:05;25.10;99.90
12025;DHT22;6073;53.230;10.444;2023-07-13T11:58:31;25.20;99.90
12025;DHT22;6073;53.230;10.444;2023-07-13T12:00:59;25.60;99.90
12025;DHT22;6073;53.230;10.444;2023-07-13T12:03:27;25.80;99.90
12025;DHT22;6073;53.230;10.444;2023-07-13T12:05:58;25.80;99.90
12025;DHT22;6073;53.230;10.444;2023-07-13T12:08:25;26.00;99.90
12025;DHT22;6073;53.230;10.444;2023-07-13T12:10:58;25.70;99.90
12025;DHT22;6073;53.230;10.444;2023-07-13T12:13:27;25.50;99.90
12025;DHT22;6073;53.230;10.444;2023-07-13T12:15:53;25.30;99.90
12025;DHT22;6073;53.230;10.444;2023-07-13T12:18:22;25.30;99.90
12025;DHT22;6073;53.230;10.444;2023-07-13T12:20:49;25.60;99.90
12025;DHT22;6073;53.230;10.444;2023-07-13T12:23:29;25.90;99.90
12025;DHT22;6073;53.230;10.444;2023-07-13T12:25:55;25.60;99.90
12025;DHT22;6073;53.230;10.444;2023-07-13T12:28:36;25.10;99.90
12025;DHT22;6073;53.230;10.444;2023-07-13T12:31:07;24.70;99.90
12025;DHT22;6073;53.230;10.444;2023-07-13T12:33:39;24.50;99.90
12025;DHT22;6073;53.230;10.444;2023-07-13T12:36:06;24.40;99.90
12025;DHT22;6073;53.230;10.444;2023-07-13T12:38:33;24.40;99.90
12025;DHT22;6073;53.230;10.444;2023-07-13T12:41:01;24.40;99.90
12025;DHT22;6073;53.230;10.444;2023-07-13T12:43:33;24.30;99.90
12025;DHT22;6073;53.230;10.444;2023-07-13T12:46:04;23.90;99.90
12025;DHT22;6073;53.230;10.444;2023-07-13T12:48:41;23.40;99.90
12025;DHT22;6073;53.230;10.444;2023-07-13T12:51:12;22.90;99.90
12025;DHT22;6073;53.230;10.444;2023-07-13T12:53:57;22.80;99.90
12025;DHT22;6073;53.230;10.444;2023-07-13T12:56:25;22.70;99.90
12025;DHT22;6073;53.230;10.444;2023-07-13T12:58:58;22.70;99.90
12025;DHT22;6073;53.230;10.444;2023-07-13T13:01:27;22.50;99.90
12025;DHT22;6073;53.230;10.444;2023-07-13T13:03:54;22.20;99.90
12025;DHT22;6073;53.230;10.444;2023-07-13T13:06:26;21.80;99.90
12025;DHT22;6073;53.230;10.444;2023-07-13T13:08:54;21.50;99.90
12025;DHT22;6073;53.230;10.444;2023-07-13T13:11:22;20.20;99.90
12025;DHT22;6073;53.230;10.444;2023-07-13T13:13:49;19.50;99.90
12025;DHT22;6073;53.230;10.444;2023-07-13T13:18:55;18.70;99.90
12025;DHT22;6073;53.230;10.444;2023-07-13T13:21:23;18.10;99.90
12025;DHT22;6073;53.230;10.444;2023-07-13T13:23:49;17.70;99.90
12025;DHT22;6073;53.230;10.444;2023-07-13T13:26:16;17.40;99.90
12025;DHT22;6073;53.230;10.444;2023-07-13T13:28:43;17.40;99.90
12025;DHT22;6073;53.230;10.444;2023-07-13T13:31:10;17.40;99.90
12025;DHT22;6073;53.230;10.444;2023-07-13T13:33:38;17.40;99.90
12025;DHT22;6073;53.230;10.444;2023-07-13T13:36:13;17.60;99.90
12025;DHT22;6073;53.230;10.444;2023-07-13T13:38:40;17.90;99.90
12025;DHT22;6073;53.230;10.444;2023-07-13T13:41:09;18.10;99.90
12025;DHT22;6073;53.230;10.444;2023-07-13T13:43:35;18.40;99.90
12025;DHT22;6073;53.230;10.444;2023-07-13T13:46:00;18.40;99.90
12025;DHT22;6073;53.230;10.444;2023-07-13T13:48:33;18.50;99.90
12025;DHT22;6073;53.230;10.444;2023-07-13T13:51:00;18.90;99.90
12025;DHT22;6073;53.230;10.444;2023-07-13T13:53:27;18.90;99.90
12025;DHT22;6073;53.230;10.444;2023-07-13T13:55:53;18.80;99.90
12025;DHT22;6073;53.230;10.444;2023-07-13T13:58:20;18.80;99.90
12025;DHT22;6073;53.230;10.444;2023-07-13T14:00:45;18.90;99.90
12025;DHT22;6073;53.230;10.444;2023-07-13T14:03:17;18.90;99.90
12025;DHT22;6073;53.230;10.444;2023-07-13T14:05:44;18.90;99.90
12025;DHT22;6073;53.230;10.444;2023-07-13T14:08:17;18.90;99.90
12025;DHT22;6073;53.230;10.444;2023-07-13T14:10:45;19.00;99.90
12025;DHT22;6073;53.230;10.444;2023-07-13T14:13:35;19.00;99.90
12025;DHT22;6073;53.230;10.444;2023-07-13T14:16:02;19.10;99.90
12025;DHT22;6073;53.230;10.444;2023-07-13T14:18:28;19.20;99.90
12025;DHT22;6073;53.230;10.444;2023-07-13T14:20:53;19.30;99.90
12025;DHT22;6073;53.230;10.444;2023-07-13T14:23:19;19.40;99.90
12025;DHT22;6073;53.230;10.444;2023-07-13T14:25:46;19.50;99.90
12025;DHT22;6073;53.230;10.444;2023-07-13T14:28:22;19.40;99.90
12025;DHT22;6073;53.230;10.444;2023-07-13T14:30:49;19.40;99.90
12025;DHT22;6073;53.230;10.444;2023-07-13T14:33:15;19.30;99.90
12025;DHT22;6073;53.230;10.444;2023-07-13T14:35:41;19.10;99.90
12025;DHT22;6073;53.230;10.444;2023-07-13T14:38:15;19.20;99.90
12025;DHT22;6073;53.230;10.444;2023-07-13T14:40:41;19.10;99.90
12025;DHT22;6073;53.230;10.444;2023-07-13T14:43:10;19.10;99.90
12025;DHT22;6073;53.230;10.444;2023-07-13T14:45:39;19.00;99.90
12025;DHT22;6073;53.230;10.444;2023-07-13T14:48:16;19.00;99.90
12025;DHT22;6073;53.230;10.444;2023-07-13T14:50:42;18.90;99.90
12025;DHT22;6073;53.230;10.444;2023-07-13T14:53:12;19.00;99.90
12025;DHT22;6073;53.230;10.444;2023-07-13T14:55:37;19.10;99.90
12025;DHT22;6073;53.230;10.444;2023-07-13T14:58:03;19.00;99.90
12025;DHT22;6073;53.230;10.444;2023-07-13T15:00:29;19.00;99.90
12025;DHT22;6073;53.230;10.444;2023-07-13T15:02:57;19.10;99.90
12025;DHT22;6073;53.230;10.444;2023-07-13T15:05:26;19.00;99.90
12025;DHT22;6073;53.230;10.444;2023-07-13T15:07:53;19.00;99.90
12025;DHT22;6073;53.230;10.444;2023-07-13T15:10:25;19.10;99.90
12025;DHT22;6073;53.230;10.444;2023-07-13T15:12:52;19.10;99.90
12025;DHT22;6073;53.230;10.444;2023-07-13T15:15:19;19.30;99.90
12025;DHT22;6073;53.230;10.444;2023-07-13T15:17:46;19.30;99.90
12025;DHT22;6073;53.230;10.444;2023-07-13T15:20:33;19.50;99.90
12025;DHT22;6073;53.230;10.444;2023-07-13T15:23:01;19.40;99.90
12025;DHT22;6073;53.230;10.444;2023-07-13T15:25:28;19.30;99.90
12025;DHT22;6073;53.230;10.444;2023-07-13T15:27:56;19.30;99.90
12025;DHT22;6073;53.230;10.444;2023-07-13T15:30:22;19.30;99.90
12025;DHT22;6073;53.230;10.444;2023-07-13T15:32:50;19.40;99.90
12025;DHT22;6073;53.230;10.444;2023-07-13T15:35:18;19.50;99.90
12025;DHT22;6073;53.230;10.444;2023-07-13T15:37:44;19.50;99.90
12025;DHT22;6073;53.230;10.444;2023-07-13T15:40:11;19.40;99.90
12025;DHT22;6073;53.230;10.444;2023-07-13T15:42:38;19.60;99.90
12025;DHT22;6073;53.230;10.444;2023-07-13T15:45:04;19.50;99.90
12025;DHT22;6073;53.230;10.444;2023-07-13T15:47:31;19.60;99.90
12025;DHT22;6073;53.230;10.444;2023-07-13T15:49:57;19.80;99.90
12025;DHT22;6073;53.230;10.444;2023-07-13T15:52:24;19.70;99.90
12025;DHT22;6073;53.230;10.444;2023-07-13T15:54:50;19.80;99.90
12025;DHT22;6073;53.230;10.444;2023-07-13T15:57:16;19.80;99.90
12025;DHT22;6073;53.230;10.444;2023-07-13T15:59:42;19.80;99.90
12025;DHT22;6073;53.230;10.444;2023-07-13T16:02:20;19.80;99.90
12025;DHT22;6073;53.230;10.444;2023-07-13T16:04:46;20.00;99.90
12025;DHT22;6073;53.230;10.444;2023-07-13T16:07:14;20.50;99.90
12025;DHT22;6073;53.230;10.444;2023-07-13T16:09:43;20.60;99.90
12025;DHT22;6073;53.230;10.444;2023-07-13T16:12:14;20.60;99.90